aviador You're here:

PAEN Decoded Metar

KENAI in AK, USA
Report Time2018-01-18 10:53:00
UTC Time2018-01-18 11:36:50
Flight Rules vfr VFR
Wind010° at 03 kt
W.Decomp.*RWY 01: 2.8 kt HW 1 kt LCW
W.Rank010° ranks 3
Current wind is below 010° avg. (9.2)
Visibility9999 m
Phenomena:N/A
Clouds:N/A
CeilingNone
Temp-5°C (ISA -20)
Dew Point-5°C (100% RH)
AAT-8.7°C
QNH996 hPa
Density Alt-1,716 ft
Elevation89 ft
Report Wrong Elevation
Raw Report
PAEN 181053Z AUTO 01003KT 10SM CLR M05/M05 A2941=

Extra information for PAEN:More info

Metar Taf Metar & Taf Last 4 Metars F.Rules Stats Wind Profile Meteogram Temp Stats Airport Information Weather charts Add Link Nearby VenuesMetar ALERT Operation Metar Decoded Social comments

AIRNAV info for PAEN